sensor_id;sensor_type;location;lat;lon;timestamp;temperature;humidity
11505;DHT22;5809;53.262;10.408;2023-05-07T00:03:09;8.20;99.90
11505;DHT22;5809;53.262;10.408;2023-05-07T00:05:36;8.20;99.90
11505;DHT22;5809;53.262;10.408;2023-05-07T00:08:04;8.20;99.90
11505;DHT22;5809;53.262;10.408;2023-05-07T00:10:33;8.20;99.90
11505;DHT22;5809;53.262;10.408;2023-05-07T00:15:27;8.20;99.90
11505;DHT22;5809;53.262;10.408;2023-05-07T00:20:21;8.20;99.90
11505;DHT22;5809;53.262;10.408;2023-05-07T00:27:44;8.30;99.90
11505;DHT22;5809;53.262;10.408;2023-05-07T00:30:11;8.30;99.90
11505;DHT22;5809;53.262;10.408;2023-05-07T00:32:38;8.30;99.90
11505;DHT22;5809;53.262;10.408;2023-05-07T00:35:07;8.30;99.90
11505;DHT22;5809;53.262;10.408;2023-05-07T00:37:34;8.30;99.90
11505;DHT22;5809;53.262;10.408;2023-05-07T00:40:00;8.30;99.90
11505;DHT22;5809;53.262;10.408;2023-05-07T00:42:30;8.30;99.90
11505;DHT22;5809;53.262;10.408;2023-05-07T00:44:59;8.40;99.90
11505;DHT22;5809;53.262;10.408;2023-05-07T00:47:26;8.40;99.90
11505;DHT22;5809;53.262;10.408;2023-05-07T00:52:21;8.40;99.90
11505;DHT22;5809;53.262;10.408;2023-05-07T00:54:50;8.40;99.90
11505;DHT22;5809;53.262;10.408;2023-05-07T00:57:18;8.40;99.90
11505;DHT22;5809;53.262;10.408;2023-05-07T00:59:45;8.40;99.90
11505;DHT22;5809;53.262;10.408;2023-05-07T01:02:13;8.40;99.90
11505;DHT22;5809;53.262;10.408;2023-05-07T01:04:40;8.40;99.90
11505;DHT22;5809;53.262;10.408;2023-05-07T01:07:08;8.40;99.90
11505;DHT22;5809;53.262;10.408;2023-05-07T01:09:35;8.30;99.90
11505;DHT22;5809;53.262;10.408;2023-05-07T01:12:03;8.30;99.90
11505;DHT22;5809;53.262;10.408;2023-05-07T01:14:31;8.40;99.90
11505;DHT22;5809;53.262;10.408;2023-05-07T01:16:58;8.40;99.90
11505;DHT22;5809;53.262;10.408;2023-05-07T01:19:29;8.30;99.90
11505;DHT22;5809;53.262;10.408;2023-05-07T01:22:02;8.30;99.90
11505;DHT22;5809;53.262;10.408;2023-05-07T01:24:32;7.80;99.90
11505;DHT22;5809;53.262;10.408;2023-05-07T01:26:59;8.30;99.90
11505;DHT22;5809;53.262;10.408;2023-05-07T01:29:27;8.30;99.90
11505;DHT22;5809;53.262;10.408;2023-05-07T01:31:55;8.30;99.90
11505;DHT22;5809;53.262;10.408;2023-05-07T01:34:25;8.30;99.90
11505;DHT22;5809;53.262;10.408;2023-05-07T01:36:54;8.30;99.90
11505;DHT22;5809;53.262;10.408;2023-05-07T01:39:24;8.30;99.90
11505;DHT22;5809;53.262;10.408;2023-05-07T01:41:53;8.30;99.90
11505;DHT22;5809;53.262;10.408;2023-05-07T01:44:21;8.30;99.90
11505;DHT22;5809;53.262;10.408;2023-05-07T01:46:49;8.20;99.90
11505;DHT22;5809;53.262;10.408;2023-05-07T01:49:16;8.20;99.90
11505;DHT22;5809;53.262;10.408;2023-05-07T01:51:44;8.20;99.90
11505;DHT22;5809;53.262;10.408;2023-05-07T01:54:10;8.20;99.90
11505;DHT22;5809;53.262;10.408;2023-05-07T01:56:37;8.20;99.90
11505;DHT22;5809;53.262;10.408;2023-05-07T02:01:33;8.20;99.90
11505;DHT22;5809;53.262;10.408;2023-05-07T02:04:00;8.20;99.90
11505;DHT22;5809;53.262;10.408;2023-05-07T02:08:54;8.20;99.90
11505;DHT22;5809;53.262;10.408;2023-05-07T02:13:48;8.20;99.90
11505;DHT22;5809;53.262;10.408;2023-05-07T02:16:16;8.20;99.90
11505;DHT22;5809;53.262;10.408;2023-05-07T02:18:44;8.10;99.90
11505;DHT22;5809;53.262;10.408;2023-05-07T02:21:11;8.10;99.90
11505;DHT22;5809;53.262;10.408;2023-05-07T02:23:38;8.10;99.90
11505;DHT22;5809;53.262;10.408;2023-05-07T02:28:32;8.10;99.90
11505;DHT22;5809;53.262;10.408;2023-05-07T02:31:02;8.10;99.90
11505;DHT22;5809;53.262;10.408;2023-05-07T02:33:30;8.20;99.90
11505;DHT22;5809;53.262;10.408;2023-05-07T02:38:24;8.10;99.90
11505;DHT22;5809;53.262;10.408;2023-05-07T02:43:18;8.10;99.90
11505;DHT22;5809;53.262;10.408;2023-05-07T02:48:12;8.10;99.90
11505;DHT22;5809;53.262;10.408;2023-05-07T02:50:41;8.20;99.90
11505;DHT22;5809;53.262;10.408;2023-05-07T02:55:35;8.20;99.90
11505;DHT22;5809;53.262;10.408;2023-05-07T03:00:29;8.20;99.90
11505;DHT22;5809;53.262;10.408;2023-05-07T03:02:56;8.20;99.90
11505;DHT22;5809;53.262;10.408;2023-05-07T03:07:51;8.20;99.90
11505;DHT22;5809;53.262;10.408;2023-05-07T03:10:18;8.10;99.90
11505;DHT22;5809;53.262;10.408;2023-05-07T03:12:45;8.20;99.90
11505;DHT22;5809;53.262;10.408;2023-05-07T03:15:12;8.20;99.90
11505;DHT22;5809;53.262;10.408;2023-05-07T03:17:39;8.20;99.90
11505;DHT22;5809;53.262;10.408;2023-05-07T03:20:07;8.20;99.90
11505;DHT22;5809;53.262;10.408;2023-05-07T03:25:04;8.20;99.90
11505;DHT22;5809;53.262;10.408;2023-05-07T03:27:31;8.30;99.90
11505;DHT22;5809;53.262;10.408;2023-05-07T03:29:58;8.20;99.90
11505;DHT22;5809;53.262;10.408;2023-05-07T03:34:52;8.30;99.90
11505;DHT22;5809;53.262;10.408;2023-05-07T03:42:16;8.30;99.90
11505;DHT22;5809;53.262;10.408;2023-05-07T03:44:42;8.20;99.90
11505;DHT22;5809;53.262;10.408;2023-05-07T03:47:09;8.30;99.90
11505;DHT22;5809;53.262;10.408;2023-05-07T03:49:36;8.30;99.90
11505;DHT22;5809;53.262;10.408;2023-05-07T03:52:04;8.30;99.90
11505;DHT22;5809;53.262;10.408;2023-05-07T03:54:31;8.30;99.90
11505;DHT22;5809;53.262;10.408;2023-05-07T03:56:58;8.30;99.90
11505;DHT22;5809;53.262;10.408;2023-05-07T03:59:26;8.20;99.90
11505;DHT22;5809;53.262;10.408;2023-05-07T04:01:53;8.30;99.90
11505;DHT22;5809;53.262;10.408;2023-05-07T04:04:20;8.30;99.90
11505;DHT22;5809;53.262;10.408;2023-05-07T04:06:47;8.30;99.90
11505;DHT22;5809;53.262;10.408;2023-05-07T04:16:36;8.30;99.90
11505;DHT22;5809;53.262;10.408;2023-05-07T04:19:03;8.30;99.90
11505;DHT22;5809;53.262;10.408;2023-05-07T04:21:31;8.30;99.90
11505;DHT22;5809;53.262;10.408;2023-05-07T04:23:58;8.30;99.90
11505;DHT22;5809;53.262;10.408;2023-05-07T04:26:25;8.30;99.90
11505;DHT22;5809;53.262;10.408;2023-05-07T04:28:52;8.30;99.90
11505;DHT22;5809;53.262;10.408;2023-05-07T04:31:18;8.30;99.90
11505;DHT22;5809;53.262;10.408;2023-05-07T04:33:47;8.30;99.90
11505;DHT22;5809;53.262;10.408;2023-05-07T04:36:14;8.30;99.90
11505;DHT22;5809;53.262;10.408;2023-05-07T04:38:41;8.40;99.90
11505;DHT22;5809;53.262;10.408;2023-05-07T04:41:08;8.40;99.90
11505;DHT22;5809;53.262;10.408;2023-05-07T04:43:35;8.40;99.90
11505;DHT22;5809;53.262;10.408;2023-05-07T04:48:30;8.40;99.90
11505;DHT22;5809;53.262;10.408;2023-05-07T04:53:25;8.40;99.90
11505;DHT22;5809;53.262;10.408;2023-05-07T04:55:55;8.50;99.90
11505;DHT22;5809;53.262;10.408;2023-05-07T05:00:50;8.50;99.90
11505;DHT22;5809;53.262;10.408;2023-05-07T05:08:13;8.40;99.90
11505;DHT22;5809;53.262;10.408;2023-05-07T05:22:59;8.60;99.90
11505;DHT22;5809;53.262;10.408;2023-05-07T05:25:27;8.60;99.90
11505;DHT22;5809;53.262;10.408;2023-05-07T05:27:55;8.60;99.90
11505;DHT22;5809;53.262;10.408;2023-05-07T05:32:49;8.60;99.90
11505;DHT22;5809;53.262;10.408;2023-05-07T05:37:43;8.60;99.90
11505;DHT22;5809;53.262;10.408;2023-05-07T05:40:11;8.60;99.90
11505;DHT22;5809;53.262;10.408;2023-05-07T05:42:39;8.70;99.90
11505;DHT22;5809;53.262;10.408;2023-05-07T05:45:07;8.70;99.90
11505;DHT22;5809;53.262;10.408;2023-05-07T05:50:01;8.70;99.90
11505;DHT22;5809;53.262;10.408;2023-05-07T05:54:56;8.70;99.90
11505;DHT22;5809;53.262;10.408;2023-05-07T05:59:51;8.70;99.90
11505;DHT22;5809;53.262;10.408;2023-05-07T06:14:34;8.80;99.90
11505;DHT22;5809;53.262;10.408;2023-05-07T06:17:02;8.80;99.90
11505;DHT22;5809;53.262;10.408;2023-05-07T06:21:56;8.80;99.90
11505;DHT22;5809;53.262;10.408;2023-05-07T06:24:24;8.90;99.90
11505;DHT22;5809;53.262;10.408;2023-05-07T06:26:51;8.80;99.90
11505;DHT22;5809;53.262;10.408;2023-05-07T06:29:18;8.90;99.90
11505;DHT22;5809;53.262;10.408;2023-05-07T06:31:45;8.90;99.90
11505;DHT22;5809;53.262;10.408;2023-05-07T06:34:13;8.90;99.90
11505;DHT22;5809;53.262;10.408;2023-05-07T06:36:40;8.90;99.90
11505;DHT22;5809;53.262;10.408;2023-05-07T06:39:07;8.90;99.90
11505;DHT22;5809;53.262;10.408;2023-05-07T06:44:03;9.00;99.90
11505;DHT22;5809;53.262;10.408;2023-05-07T06:48:57;9.00;99.90
11505;DHT22;5809;53.262;10.408;2023-05-07T06:51:25;9.00;99.90
11505;DHT22;5809;53.262;10.408;2023-05-07T07:01:15;9.10;99.90
11505;DHT22;5809;53.262;10.408;2023-05-07T07:06:09;9.10;99.90
11505;DHT22;5809;53.262;10.408;2023-05-07T07:08:37;9.10;99.90
11505;DHT22;5809;53.262;10.408;2023-05-07T07:15:59;9.20;99.90
11505;DHT22;5809;53.262;10.408;2023-05-07T07:18:26;9.20;99.90
11505;DHT22;5809;53.262;10.408;2023-05-07T07:23:20;9.20;99.90
11505;DHT22;5809;53.262;10.408;2023-05-07T07:25:49;9.30;99.90
11505;DHT22;5809;53.262;10.408;2023-05-07T07:28:16;9.30;99.90
11505;DHT22;5809;53.262;10.408;2023-05-07T07:33:10;9.30;99.90
11505;DHT22;5809;53.262;10.408;2023-05-07T07:38:04;9.50;99.90
11505;DHT22;5809;53.262;10.408;2023-05-07T07:43:00;9.50;99.90
11505;DHT22;5809;53.262;10.408;2023-05-07T07:47:54;9.60;99.90
11505;DHT22;5809;53.262;10.408;2023-05-07T07:50:21;9.70;99.90
11505;DHT22;5809;53.262;10.408;2023-05-07T07:52:48;9.70;99.90
11505;DHT22;5809;53.262;10.408;2023-05-07T07:55:15;9.60;99.90
11505;DHT22;5809;53.262;10.408;2023-05-07T08:00:16;9.60;99.90
11505;DHT22;5809;53.262;10.408;2023-05-07T08:05:10;9.60;99.90
11505;DHT22;5809;53.262;10.408;2023-05-07T08:07:37;9.70;99.90
11505;DHT22;5809;53.262;10.408;2023-05-07T08:10:04;9.70;99.90
11505;DHT22;5809;53.262;10.408;2023-05-07T08:12:31;9.60;99.90
11505;DHT22;5809;53.262;10.408;2023-05-07T08:14:59;9.70;99.90
11505;DHT22;5809;53.262;10.408;2023-05-07T08:17:27;9.70;99.90
11505;DHT22;5809;53.262;10.408;2023-05-07T08:22:22;9.70;99.90
11505;DHT22;5809;53.262;10.408;2023-05-07T08:24:49;9.60;99.90
11505;DHT22;5809;53.262;10.408;2023-05-07T08:29:44;9.80;99.90
11505;DHT22;5809;53.262;10.408;2023-05-07T08:32:13;10.00;99.90
11505;DHT22;5809;53.262;10.408;2023-05-07T08:34:42;9.90;99.90
11505;DHT22;5809;53.262;10.408;2023-05-07T08:37:10;10.00;99.90
11505;DHT22;5809;53.262;10.408;2023-05-07T08:39:40;10.00;99.90
11505;DHT22;5809;53.262;10.408;2023-05-07T08:42:09;12.40;99.90
11505;DHT22;5809;53.262;10.408;2023-05-07T08:44:38;9.80;99.90
11505;DHT22;5809;53.262;10.408;2023-05-07T08:47:07;9.90;99.90
11505;DHT22;5809;53.262;10.408;2023-05-07T08:49:35;10.10;99.90
11505;DHT22;5809;53.262;10.408;2023-05-07T08:52:04;10.10;99.90
11505;DHT22;5809;53.262;10.408;2023-05-07T08:54:31;10.20;99.90
11505;DHT22;5809;53.262;10.408;2023-05-07T08:56:59;10.20;99.90
11505;DHT22;5809;53.262;10.408;2023-05-07T08:59:26;10.30;99.90
11505;DHT22;5809;53.262;10.408;2023-05-07T09:01:53;10.30;99.90
11505;DHT22;5809;53.262;10.408;2023-05-07T09:04:20;10.30;99.90
11505;DHT22;5809;53.262;10.408;2023-05-07T09:06:47;10.20;99.90
11505;DHT22;5809;53.262;10.408;2023-05-07T09:09:18;10.10;99.90
11505;DHT22;5809;53.262;10.408;2023-05-07T09:11:45;10.10;99.90
11505;DHT22;5809;53.262;10.408;2023-05-07T09:14:12;10.10;99.90
11505;DHT22;5809;53.262;10.408;2023-05-07T09:16:40;10.10;99.90
11505;DHT22;5809;53.262;10.408;2023-05-07T09:19:06;10.10;99.90
11505;DHT22;5809;53.262;10.408;2023-05-07T09:21:33;10.10;99.90
11505;DHT22;5809;53.262;10.408;2023-05-07T09:24:00;10.10;99.90
11505;DHT22;5809;53.262;10.408;2023-05-07T09:26:29;10.00;99.90
11505;DHT22;5809;53.262;10.408;2023-05-07T09:31:26;10.20;99.90
11505;DHT22;5809;53.262;10.408;2023-05-07T09:33:53;10.20;99.90
11505;DHT22;5809;53.262;10.408;2023-05-07T09:36:21;10.20;99.90
11505;DHT22;5809;53.262;10.408;2023-05-07T09:38:48;10.30;99.90
11505;DHT22;5809;53.262;10.408;2023-05-07T09:43:45;10.60;99.90
11505;DHT22;5809;53.262;10.408;2023-05-07T09:46:13;10.50;99.90
11505;DHT22;5809;53.262;10.408;2023-05-07T09:48:41;10.40;99.90
11505;DHT22;5809;53.262;10.408;2023-05-07T09:51:18;10.40;99.90
11505;DHT22;5809;53.262;10.408;2023-05-07T09:53:48;10.50;99.90
11505;DHT22;5809;53.262;10.408;2023-05-07T09:56:18;10.60;99.90
11505;DHT22;5809;53.262;10.408;2023-05-07T09:58:47;10.60;99.90
11505;DHT22;5809;53.262;10.408;2023-05-07T10:01:14;10.70;99.90
11505;DHT22;5809;53.262;10.408;2023-05-07T10:03:43;10.70;99.90
11505;DHT22;5809;53.262;10.408;2023-05-07T10:06:12;10.70;99.90
11505;DHT22;5809;53.262;10.408;2023-05-07T10:08:40;10.50;99.90
11505;DHT22;5809;53.262;10.408;2023-05-07T10:11:07;10.60;99.90
11505;DHT22;5809;53.262;10.408;2023-05-07T10:13:34;10.70;99.90
11505;DHT22;5809;53.262;10.408;2023-05-07T10:16:05;10.50;99.90
11505;DHT22;5809;53.262;10.408;2023-05-07T10:18:32;10.50;99.90
11505;DHT22;5809;53.262;10.408;2023-05-07T10:21:04;10.50;99.90
11505;DHT22;5809;53.262;10.408;2023-05-07T10:23:33;10.70;99.90
11505;DHT22;5809;53.262;10.408;2023-05-07T10:26:03;10.70;99.90
11505;DHT22;5809;53.262;10.408;2023-05-07T10:28:33;10.80;99.90
11505;DHT22;5809;53.262;10.408;2023-05-07T10:31:10;11.00;99.90
11505;DHT22;5809;53.262;10.408;2023-05-07T10:33:42;10.70;99.90
11505;DHT22;5809;53.262;10.408;2023-05-07T10:36:11;10.80;99.90
11505;DHT22;5809;53.262;10.408;2023-05-07T10:38:39;10.80;99.90
11505;DHT22;5809;53.262;10.408;2023-05-07T10:43:40;10.90;99.90
11505;DHT22;5809;53.262;10.408;2023-05-07T10:46:15;10.90;99.90
11505;DHT22;5809;53.262;10.408;2023-05-07T10:49:12;10.80;99.90
11505;DHT22;5809;53.262;10.408;2023-05-07T10:51:39;10.70;99.90
11505;DHT22;5809;53.262;10.408;2023-05-07T10:54:22;10.80;99.90
11505;DHT22;5809;53.262;10.408;2023-05-07T10:56:50;10.80;99.90
11505;DHT22;5809;53.262;10.408;2023-05-07T10:59:31;10.90;99.90
11505;DHT22;5809;53.262;10.408;2023-05-07T11:02:02;11.00;99.90
11505;DHT22;5809;53.262;10.408;2023-05-07T11:04:29;11.10;99.90
11505;DHT22;5809;53.262;10.408;2023-05-07T11:07:27;11.10;99.90
11505;DHT22;5809;53.262;10.408;2023-05-07T11:10:02;11.30;99.90
11505;DHT22;5809;53.262;10.408;2023-05-07T11:12:50;11.40;99.90
11505;DHT22;5809;53.262;10.408;2023-05-07T11:15:42;11.60;99.90
11505;DHT22;5809;53.262;10.408;2023-05-07T11:18:12;11.80;99.90
11505;DHT22;5809;53.262;10.408;2023-05-07T11:20:53;11.60;99.90
11505;DHT22;5809;53.262;10.408;2023-05-07T11:23:57;11.70;99.90
11505;DHT22;5809;53.262;10.408;2023-05-07T11:26:25;11.60;99.90
11505;DHT22;5809;53.262;10.408;2023-05-07T11:28:53;11.80;99.90
11505;DHT22;5809;53.262;10.408;2023-05-07T11:31:22;11.80;99.90
11505;DHT22;5809;53.262;10.408;2023-05-07T11:33:51;12.10;99.90
11505;DHT22;5809;53.262;10.408;2023-05-07T11:36:18;12.50;99.90
11505;DHT22;5809;53.262;10.408;2023-05-07T11:38:46;12.60;99.90
11505;DHT22;5809;53.262;10.408;2023-05-07T11:41:13;12.40;99.90
11505;DHT22;5809;53.262;10.408;2023-05-07T11:43:57;12.80;99.90
11505;DHT22;5809;53.262;10.408;2023-05-07T11:46:24;13.20;99.90
11505;DHT22;5809;53.262;10.408;2023-05-07T11:48:53;13.60;99.90
11505;DHT22;5809;53.262;10.408;2023-05-07T11:51:21;13.30;99.90
11505;DHT22;5809;53.262;10.408;2023-05-07T11:56:16;12.90;99.90
11505;DHT22;5809;53.262;10.408;2023-05-07T11:58:46;12.80;99.90
11505;DHT22;5809;53.262;10.408;2023-05-07T12:01:15;12.90;99.90
11505;DHT22;5809;53.262;10.408;2023-05-07T12:03:43;13.00;99.90
11505;DHT22;5809;53.262;10.408;2023-05-07T12:06:13;13.80;99.90
11505;DHT22;5809;53.262;10.408;2023-05-07T12:08:42;13.70;99.90
11505;DHT22;5809;53.262;10.408;2023-05-07T12:11:10;14.20;99.90
11505;DHT22;5809;53.262;10.408;2023-05-07T12:13:37;14.20;99.90
11505;DHT22;5809;53.262;10.408;2023-05-07T12:16:06;14.80;99.90
11505;DHT22;5809;53.262;10.408;2023-05-07T12:18:34;14.70;99.90
11505;DHT22;5809;53.262;10.408;2023-05-07T12:21:02;14.60;99.90
11505;DHT22;5809;53.262;10.408;2023-05-07T12:23:32;14.80;99.90
11505;DHT22;5809;53.262;10.408;2023-05-07T12:25:59;15.30;99.90
11505;DHT22;5809;53.262;10.408;2023-05-07T12:28:26;16.00;99.90
11505;DHT22;5809;53.262;10.408;2023-05-07T12:30:53;15.30;99.90
11505;DHT22;5809;53.262;10.408;2023-05-07T12:33:24;15.30;99.90
11505;DHT22;5809;53.262;10.408;2023-05-07T12:35:53;16.00;99.90
11505;DHT22;5809;53.262;10.408;2023-05-07T12:38:20;16.50;99.90
11505;DHT22;5809;53.262;10.408;2023-05-07T12:40:50;16.30;99.90
11505;DHT22;5809;53.262;10.408;2023-05-07T12:43:18;15.00;99.90
11505;DHT22;5809;53.262;10.408;2023-05-07T12:45:46;15.20;99.90
11505;DHT22;5809;53.262;10.408;2023-05-07T12:48:13;15.40;99.90
11505;DHT22;5809;53.262;10.408;2023-05-07T12:50:40;16.00;99.90
11505;DHT22;5809;53.262;10.408;2023-05-07T12:53:08;16.50;99.90
11505;DHT22;5809;53.262;10.408;2023-05-07T12:55:44;16.40;99.90
11505;DHT22;5809;53.262;10.408;2023-05-07T12:58:19;15.70;99.90
11505;DHT22;5809;53.262;10.408;2023-05-07T13:00:49;15.80;99.90
11505;DHT22;5809;53.262;10.408;2023-05-07T13:03:24;15.90;99.90
11505;DHT22;5809;53.262;10.408;2023-05-07T13:05:52;16.20;99.90
11505;DHT22;5809;53.262;10.408;2023-05-07T13:08:30;17.30;99.90
11505;DHT22;5809;53.262;10.408;2023-05-07T13:10:58;17.10;99.90
11505;DHT22;5809;53.262;10.408;2023-05-07T13:13:30;17.70;99.90
11505;DHT22;5809;53.262;10.408;2023-05-07T13:15:57;17.70;99.90
11505;DHT22;5809;53.262;10.408;2023-05-07T13:18:24;17.80;99.90
11505;DHT22;5809;53.262;10.408;2023-05-07T13:20:51;16.90;99.90
11505;DHT22;5809;53.262;10.408;2023-05-07T13:23:18;17.30;99.90
11505;DHT22;5809;53.262;10.408;2023-05-07T13:25:45;17.30;99.90
11505;DHT22;5809;53.262;10.408;2023-05-07T13:28:12;18.30;99.90
11505;DHT22;5809;53.262;10.408;2023-05-07T13:30:41;18.10;99.90
11505;DHT22;5809;53.262;10.408;2023-05-07T13:33:08;18.10;99.90
11505;DHT22;5809;53.262;10.408;2023-05-07T13:35:35;18.40;99.90
11505;DHT22;5809;53.262;10.408;2023-05-07T13:38:02;18.60;99.90
11505;DHT22;5809;53.262;10.408;2023-05-07T13:40:29;17.10;99.90
11505;DHT22;5809;53.262;10.408;2023-05-07T13:42:57;17.00;99.90
11505;DHT22;5809;53.262;10.408;2023-05-07T13:45:25;17.30;99.90
11505;DHT22;5809;53.262;10.408;2023-05-07T13:47:53;16.70;99.90
11505;DHT22;5809;53.262;10.408;2023-05-07T13:50:20;15.80;99.90
11505;DHT22;5809;53.262;10.408;2023-05-07T13:52:47;15.80;99.90
11505;DHT22;5809;53.262;10.408;2023-05-07T13:55:16;16.30;99.90
11505;DHT22;5809;53.262;10.408;2023-05-07T13:57:43;15.60;99.90
11505;DHT22;5809;53.262;10.408;2023-05-07T14:00:11;15.50;99.90
11505;DHT22;5809;53.262;10.408;2023-05-07T14:02:38;15.80;99.90
11505;DHT22;5809;53.262;10.408;2023-05-07T14:05:07;15.80;99.90
11505;DHT22;5809;53.262;10.408;2023-05-07T14:07:35;15.80;99.90
11505;DHT22;5809;53.262;10.408;2023-05-07T14:10:03;16.00;99.90
11505;DHT22;5809;53.262;10.408;2023-05-07T14:12:30;16.00;99.90
11505;DHT22;5809;53.262;10.408;2023-05-07T14:14:56;16.10;99.90
11505;DHT22;5809;53.262;10.408;2023-05-07T14:17:23;16.50;99.90
11505;DHT22;5809;53.262;10.408;2023-05-07T14:19:52;16.80;99.90
11505;DHT22;5809;53.262;10.408;2023-05-07T14:22:22;16.40;99.90
11505;DHT22;5809;53.262;10.408;2023-05-07T14:24:49;16.50;99.90
11505;DHT22;5809;53.262;10.408;2023-05-07T14:27:16;17.10;99.90
11505;DHT22;5809;53.262;10.408;2023-05-07T14:29:43;16.70;99.90
11505;DHT22;5809;53.262;10.408;2023-05-07T14:32:11;16.30;99.90
11505;DHT22;5809;53.262;10.408;2023-05-07T14:34:38;16.80;99.90
11505;DHT22;5809;53.262;10.408;2023-05-07T14:37:05;16.30;99.90
11505;DHT22;5809;53.262;10.408;2023-05-07T14:39:33;16.50;99.90
11505;DHT22;5809;53.262;10.408;2023-05-07T14:42:00;16.80;99.90
11505;DHT22;5809;53.262;10.408;2023-05-07T14:44:27;16.80;99.90
11505;DHT22;5809;53.262;10.408;2023-05-07T14:46:54;17.10;99.90
11505;DHT22;5809;53.262;10.408;2023-05-07T14:49:20;16.90;99.90
11505;DHT22;5809;53.262;10.408;2023-05-07T14:51:47;17.80;99.90
11505;DHT22;5809;53.262;10.408;2023-05-07T14:54:14;17.20;99.90
11505;DHT22;5809;53.262;10.408;2023-05-07T14:56:43;16.70;99.90
11505;DHT22;5809;53.262;10.408;2023-05-07T14:59:10;16.20;99.90
11505;DHT22;5809;53.262;10.408;2023-05-07T15:01:37;16.20;99.90
11505;DHT22;5809;53.262;10.408;2023-05-07T15:04:06;16.00;99.90
11505;DHT22;5809;53.262;10.408;2023-05-07T15:06:32;16.00;99.90
11505;DHT22;5809;53.262;10.408;2023-05-07T15:09:00;15.90;99.90
11505;DHT22;5809;53.262;10.408;2023-05-07T15:11:26;15.80;99.90
11505;DHT22;5809;53.262;10.408;2023-05-07T15:13:55;16.00;99.90
11505;DHT22;5809;53.262;10.408;2023-05-07T15:16:22;16.20;99.90
11505;DHT22;5809;53.262;10.408;2023-05-07T15:18:48;15.90;99.90
11505;DHT22;5809;53.262;10.408;2023-05-07T15:21:15;15.80;99.90
11505;DHT22;5809;53.262;10.408;2023-05-07T15:23:42;15.70;99.90
11505;DHT22;5809;53.262;10.408;2023-05-07T15:26:10;15.80;99.90
11505;DHT22;5809;53.262;10.408;2023-05-07T15:28:37;15.80;99.90
11505;DHT22;5809;53.262;10.408;2023-05-07T15:31:06;15.90;99.90
11505;DHT22;5809;53.262;10.408;2023-05-07T15:33:32;15.80;99.90
11505;DHT22;5809;53.262;10.408;2023-05-07T15:35:59;15.90;99.90
11505;DHT22;5809;53.262;10.408;2023-05-07T15:38:28;16.00;99.90
11505;DHT22;5809;53.262;10.408;2023-05-07T15:40:55;16.10;99.90
11505;DHT22;5809;53.262;10.408;2023-05-07T15:43:22;16.10;99.90
11505;DHT22;5809;53.262;10.408;2023-05-07T15:45:50;16.20;99.90
11505;DHT22;5809;53.262;10.408;2023-05-07T15:48:19;16.10;99.90
11505;DHT22;5809;53.262;10.408;2023-05-07T15:50:46;16.10;99.90
11505;DHT22;5809;53.262;10.408;2023-05-07T15:53:12;15.80;99.90
11505;DHT22;5809;53.262;10.408;2023-05-07T15:55:40;15.80;99.90
11505;DHT22;5809;53.262;10.408;2023-05-07T15:58:09;15.80;99.90
11505;DHT22;5809;53.262;10.408;2023-05-07T16:00:35;15.80;99.90
11505;DHT22;5809;53.262;10.408;2023-05-07T16:03:05;15.90;99.90
11505;DHT22;5809;53.262;10.408;2023-05-07T16:05:33;15.70;99.90
11505;DHT22;5809;53.262;10.408;2023-05-07T16:08:00;15.70;99.90
11505;DHT22;5809;53.262;10.408;2023-05-07T16:10:28;15.80;99.90
11505;DHT22;5809;53.262;10.408;2023-05-07T16:12:55;15.80;99.90
11505;DHT22;5809;53.262;10.408;2023-05-07T16:15:22;15.80;99.90
11505;DHT22;5809;53.262;10.408;2023-05-07T16:17:49;15.70;99.90
11505;DHT22;5809;53.262;10.408;2023-05-07T16:20:22;15.60;99.90
11505;DHT22;5809;53.262;10.408;2023-05-07T16:22:52;15.60;99.90
11505;DHT22;5809;53.262;10.408;2023-05-07T16:25:18;15.50;99.90
11505;DHT22;5809;53.262;10.408;2023-05-07T16:27:45;15.50;99.90
11505;DHT22;5809;53.262;10.408;2023-05-07T16:30:12;15.60;99.90
11505;DHT22;5809;53.262;10.408;2023-05-07T16:32:39;15.70;99.90
11505;DHT22;5809;53.262;10.408;2023-05-07T16:35:07;15.80;99.90
11505;DHT22;5809;53.262;10.408;2023-05-07T16:37:34;15.80;99.90
11505;DHT22;5809;53.262;10.408;2023-05-07T16:40:03;15.80;99.90
11505;DHT22;5809;53.262;10.408;2023-05-07T16:42:32;15.60;99.90
11505;DHT22;5809;53.262;10.408;2023-05-07T16:44:58;15.60;99.90
11505;DHT22;5809;53.262;10.408;2023-05-07T16:47:26;15.50;99.90
11505;DHT22;5809;53.262;10.408;2023-05-07T16:49:53;15.40;99.90
11505;DHT22;5809;53.262;10.408;2023-05-07T16:52:20;15.40;99.90
11505;DHT22;5809;53.262;10.408;2023-05-07T16:54:48;15.40;99.90
11505;DHT22;5809;53.262;10.408;2023-05-07T16:57:17;15.30;99.90
11505;DHT22;5809;53.262;10.408;2023-05-07T16:59:44;15.30;99.90
11505;DHT22;5809;53.262;10.408;2023-05-07T17:02:10;15.30;99.90
11505;DHT22;5809;53.262;10.408;2023-05-07T17:04:37;15.30;99.90
11505;DHT22;5809;53.262;10.408;2023-05-07T17:07:04;15.30;99.90
11505;DHT22;5809;53.262;10.408;2023-05-07T17:09:31;15.20;99.90
11505;DHT22;5809;53.262;10.408;2023-05-07T17:11:58;15.20;99.90
11505;DHT22;5809;53.262;10.408;2023-05-07T17:14:26;15.10;99.90
11505;DHT22;5809;53.262;10.408;2023-05-07T17:16:53;15.10;99.90
11505;DHT22;5809;53.262;10.408;2023-05-07T17:19:21;15.10;99.90
11505;DHT22;5809;53.262;10.408;2023-05-07T17:21:48;15.00;99.90
11505;DHT22;5809;53.262;10.408;2023-05-07T17:24:15;15.00;99.90
11505;DHT22;5809;53.262;10.408;2023-05-07T17:26:42;15.00;99.90
11505;DHT22;5809;53.262;10.408;2023-05-07T17:29:09;14.90;99.90
11505;DHT22;5809;53.262;10.408;2023-05-07T17:31:37;14.90;99.90
11505;DHT22;5809;53.262;10.408;2023-05-07T17:34:04;14.80;99.90
11505;DHT22;5809;53.262;10.408;2023-05-07T17:36:31;14.70;99.90
11505;DHT22;5809;53.262;10.408;2023-05-07T17:38:58;14.70;99.90
11505;DHT22;5809;53.262;10.408;2023-05-07T17:41:25;14.60;99.90
11505;DHT22;5809;53.262;10.408;2023-05-07T17:43:52;14.60;99.90
11505;DHT22;5809;53.262;10.408;2023-05-07T17:46:19;14.50;99.90
11505;DHT22;5809;53.262;10.408;2023-05-07T17:48:47;14.50;99.90
11505;DHT22;5809;53.262;10.408;2023-05-07T17:51:14;14.50;99.90
11505;DHT22;5809;53.262;10.408;2023-05-07T17:53:41;14.40;99.90
11505;DHT22;5809;53.262;10.408;2023-05-07T17:56:07;14.40;99.90
11505;DHT22;5809;53.262;10.408;2023-05-07T17:58:34;14.30;99.90
11505;DHT22;5809;53.262;10.408;2023-05-07T18:01:01;14.30;99.90
11505;DHT22;5809;53.262;10.408;2023-05-07T18:03:28;14.30;99.90
11505;DHT22;5809;53.262;10.408;2023-05-07T18:05:57;14.20;99.90
11505;DHT22;5809;53.262;10.408;2023-05-07T18:08:24;14.20;99.90
11505;DHT22;5809;53.262;10.408;2023-05-07T18:10:51;14.20;99.90
11505;DHT22;5809;53.262;10.408;2023-05-07T18:13:18;14.30;99.90
11505;DHT22;5809;53.262;10.408;2023-05-07T18:15:45;14.30;99.90
11505;DHT22;5809;53.262;10.408;2023-05-07T18:18:12;14.30;99.90
11505;DHT22;5809;53.262;10.408;2023-05-07T18:20:39;14.20;99.90
11505;DHT22;5809;53.262;10.408;2023-05-07T18:23:07;14.20;99.90